createdAt,value
2019-04-05T00:00:32.600Z,9.90
2019-04-05T00:03:01.573Z,9.90
2019-04-05T00:05:31.314Z,9.90
2019-04-05T00:08:00.772Z,9.90
2019-04-05T00:10:30.319Z,10.00
2019-04-05T00:12:59.861Z,10.00
2019-04-05T00:15:32.409Z,9.90
2019-04-05T00:18:01.949Z,9.90
2019-04-05T00:20:31.491Z,9.90
2019-04-05T00:23:01.025Z,9.90
2019-04-05T00:25:31.170Z,9.80
2019-04-05T00:28:00.701Z,9.80
2019-04-05T00:30:30.248Z,9.70
2019-04-05T00:32:59.772Z,9.70
2019-04-05T00:35:29.720Z,9.70
2019-04-05T00:37:59.181Z,9.70
2019-04-05T00:40:28.655Z,9.70
2019-04-05T00:42:58.198Z,9.70
2019-04-05T00:45:28.789Z,9.60
2019-04-05T00:47:58.547Z,9.60
2019-04-05T00:50:28.101Z,9.60
2019-04-05T00:52:57.621Z,9.60
2019-04-05T00:55:27.467Z,9.60
2019-04-05T00:57:56.928Z,9.50
2019-04-05T01:00:26.464Z,9.50
2019-04-05T01:02:56.012Z,9.60
2019-04-05T01:05:25.546Z,9.60
2019-04-05T01:07:55.747Z,9.60
2019-04-05T01:10:25.285Z,9.60
2019-04-05T01:12:55.301Z,9.60
2019-04-05T01:15:24.843Z,9.60
2019-04-05T01:17:55.251Z,9.50
2019-04-05T01:20:28.052Z,9.50
2019-04-05T01:22:59.997Z,9.60
2019-04-05T01:25:30.663Z,9.60
2019-04-05T01:28:00.648Z,9.60
2019-04-05T01:30:30.285Z,9.60
2019-04-05T01:33:00.323Z,9.60
2019-04-05T01:35:30.130Z,9.60
2019-04-05T01:38:00.100Z,9.50
2019-04-05T01:40:32.554Z,9.50
2019-04-05T01:43:02.160Z,9.50
2019-04-05T01:45:31.775Z,9.50
2019-04-05T01:48:01.403Z,9.50
2019-04-05T01:50:31.418Z,9.50
2019-04-05T01:53:01.007Z,9.50
2019-04-05T01:55:30.539Z,9.40
2019-04-05T01:58:00.952Z,9.30
2019-04-05T02:00:30.558Z,9.30
2019-04-05T02:03:00.158Z,9.30
2019-04-05T02:05:29.774Z,9.30
2019-04-05T02:07:59.717Z,9.40
2019-04-05T02:10:29.252Z,9.40
2019-04-05T02:12:58.795Z,9.40
2019-04-05T02:15:31.406Z,9.30
2019-04-05T02:18:00.880Z,9.30
2019-04-05T02:20:30.413Z,9.30
2019-04-05T02:23:00.120Z,9.30
2019-04-05T02:25:29.644Z,9.20
2019-04-05T02:27:59.177Z,9.20
2019-04-05T02:30:28.836Z,9.10
2019-04-05T02:32:58.315Z,9.10
2019-04-05T02:35:33.596Z,9.20
2019-04-05T02:38:03.384Z,9.10
2019-04-05T02:40:36.225Z,9.10
2019-04-05T02:43:07.629Z,9.10
2019-04-05T02:45:39.512Z,9.10
2019-04-05T02:48:11.329Z,9.00
2019-04-05T02:50:44.057Z,9.00
2019-04-05T02:53:15.800Z,9.00
2019-04-05T02:55:46.207Z,9.00
2019-04-05T02:58:16.776Z,9.10
2019-04-05T03:00:47.569Z,9.10
2019-04-05T03:03:17.407Z,9.10
2019-04-05T03:05:47.587Z,9.10
2019-04-05T03:08:18.191Z,9.10
2019-04-05T03:11:05.694Z,9.10
2019-04-05T03:13:38.348Z,9.00
2019-04-05T03:16:11.139Z,9.10
2019-04-05T03:18:44.089Z,9.10
2019-04-05T03:21:15.680Z,9.10
2019-04-05T03:23:45.952Z,9.10
2019-04-05T03:26:18.588Z,9.10
2019-04-05T03:28:51.464Z,9.00
2019-04-05T03:31:25.134Z,9.10
2019-04-05T03:33:53.689Z,9.10
2019-04-05T03:36:24.044Z,9.10
2019-04-05T03:38:53.901Z,9.20
2019-04-05T03:41:23.540Z,9.20
2019-04-05T03:43:53.486Z,9.10
2019-04-05T03:46:23.376Z,9.10
2019-04-05T03:48:53.185Z,9.20
2019-04-05T03:51:23.517Z,9.20
2019-04-05T03:53:53.190Z,9.20
2019-04-05T03:56:23.067Z,9.10
2019-04-05T03:58:53.010Z,9.10
2019-04-05T04:01:22.802Z,9.10
2019-04-05T04:03:52.505Z,9.20
2019-04-05T04:06:22.417Z,9.20
2019-04-05T04:08:52.097Z,9.20
2019-04-05T04:11:21.827Z,9.20
2019-04-05T04:13:52.117Z,9.10
2019-04-05T04:16:22.489Z,9.10
2019-04-05T04:18:52.299Z,9.20
2019-04-05T04:21:48.980Z,9.20
2019-04-05T04:24:19.518Z,9.20
2019-04-05T04:26:51.063Z,9.20
2019-04-05T04:29:33.122Z,9.20
2019-04-05T04:32:02.924Z,9.20
2019-04-05T04:34:32.558Z,9.20
2019-04-05T04:37:02.101Z,9.20
2019-04-05T04:39:31.735Z,9.20
2019-04-05T04:42:02.073Z,9.20
2019-04-05T04:44:31.532Z,9.30
2019-04-05T04:47:01.409Z,9.30
2019-04-05T04:49:31.887Z,9.30
2019-04-05T04:52:02.239Z,9.30
2019-04-05T04:54:32.169Z,9.30
2019-04-05T04:57:01.981Z,9.20
2019-04-05T04:59:31.683Z,9.20
2019-04-05T05:02:01.410Z,9.10
2019-04-05T05:04:31.204Z,9.10
2019-04-05T05:07:01.016Z,9.20
2019-04-05T05:09:32.095Z,9.20
2019-04-05T05:12:02.284Z,9.20
2019-04-05T05:14:32.594Z,9.20
2019-04-05T05:17:02.496Z,9.10
2019-04-05T05:19:32.361Z,9.20
2019-04-05T05:22:02.260Z,9.20
2019-04-05T05:24:32.228Z,9.20
2019-04-05T05:27:02.023Z,9.20
2019-04-05T05:29:32.131Z,9.20
2019-04-05T05:32:01.945Z,9.20
2019-04-05T05:34:32.421Z,9.20
2019-04-05T05:37:02.388Z,9.30
2019-04-05T05:39:31.993Z,9.30
2019-04-05T05:42:01.802Z,9.40
2019-04-05T05:44:31.512Z,9.50
2019-04-05T05:47:01.168Z,9.60
2019-04-05T05:49:30.628Z,9.60
2019-04-05T05:52:00.639Z,9.60
2019-04-05T05:54:30.169Z,9.60
2019-04-05T05:56:59.644Z,9.60
2019-04-05T05:59:30.282Z,9.60
2019-04-05T06:02:00.501Z,9.60
2019-04-05T06:04:29.960Z,9.60
2019-04-05T06:06:59.427Z,9.70
2019-04-05T06:09:29.271Z,9.70
2019-04-05T06:11:59.341Z,9.80
2019-04-05T06:14:28.901Z,9.80
2019-04-05T06:16:58.356Z,9.80
2019-04-05T06:19:27.932Z,9.80
2019-04-05T06:21:57.398Z,9.80
2019-04-05T06:24:26.876Z,9.80
2019-04-05T06:26:56.400Z,9.90
2019-04-05T06:29:25.881Z,9.90
2019-04-05T06:31:55.420Z,9.90
2019-04-05T06:34:24.973Z,10.00
2019-04-05T06:36:54.509Z,10.00
2019-04-05T06:39:24.065Z,10.00
2019-04-05T06:41:53.608Z,10.00
2019-04-05T06:44:23.152Z,10.00
2019-04-05T06:46:52.692Z,9.90
2019-04-05T06:49:22.232Z,10.00
2019-04-05T06:51:51.948Z,10.00
2019-04-05T06:54:21.489Z,10.00
2019-04-05T06:56:51.109Z,10.10
2019-04-05T06:59:20.759Z,10.30
2019-04-05T07:01:50.364Z,10.30
2019-04-05T07:04:19.913Z,10.30
2019-04-05T07:06:49.373Z,10.40
2019-04-05T07:09:18.927Z,10.40
2019-04-05T07:11:48.460Z,10.50
2019-04-05T07:14:18.199Z,10.50
2019-04-05T07:16:47.900Z,10.50
2019-04-05T07:19:17.469Z,10.50
2019-04-05T07:21:47.292Z,10.50
2019-04-05T07:24:17.008Z,10.50
2019-04-05T07:26:46.537Z,10.50
2019-04-05T07:29:16.170Z,10.40
2019-04-05T07:31:45.629Z,10.50
2019-04-05T07:34:15.179Z,10.50
2019-04-05T07:36:44.646Z,10.50
2019-04-05T07:39:14.204Z,10.30
2019-04-05T07:41:43.676Z,10.40
2019-04-05T07:44:13.238Z,10.50
2019-04-05T07:46:42.784Z,10.60
2019-04-05T07:49:12.272Z,10.70
2019-04-05T07:51:41.813Z,10.80
2019-04-05T07:54:11.419Z,10.90
2019-04-05T07:56:41.039Z,10.90
2019-04-05T07:59:10.589Z,10.90
2019-04-05T08:01:40.208Z,10.90
2019-04-05T08:04:09.679Z,10.90
2019-04-05T08:06:41.537Z,11.00
2019-04-05T08:09:12.892Z,11.00
2019-04-05T08:11:44.280Z,11.10
2019-04-05T08:14:18.047Z,11.10
2019-04-05T08:16:47.200Z,11.20
2019-04-05T08:19:16.747Z,11.20
2019-04-05T08:21:46.405Z,11.20
2019-04-05T08:24:16.020Z,11.20
2019-04-05T08:26:45.987Z,11.30
2019-04-05T08:29:15.860Z,11.30
2019-04-05T08:31:45.408Z,11.40
2019-04-05T08:34:15.043Z,11.50
2019-04-05T08:36:44.658Z,11.70
2019-04-05T08:39:14.286Z,11.70
2019-04-05T08:41:43.832Z,11.70
2019-04-05T08:44:13.460Z,11.80
2019-04-05T08:46:43.026Z,11.80
2019-04-05T08:49:12.513Z,11.70
2019-04-05T08:51:42.142Z,11.70
2019-04-05T08:54:11.740Z,11.60
2019-04-05T08:56:41.492Z,11.50
2019-04-05T08:59:11.478Z,11.60
2019-04-05T09:01:41.290Z,11.70
2019-04-05T09:04:10.854Z,11.80
2019-04-05T09:06:40.588Z,11.80
2019-04-05T09:09:10.302Z,11.90
2019-04-05T09:11:39.841Z,11.80
2019-04-05T09:14:09.460Z,11.70
2019-04-05T09:16:39.103Z,11.50
2019-04-05T09:19:08.584Z,11.50
2019-04-05T09:21:40.465Z,11.40
2019-04-05T09:24:09.467Z,11.40
2019-04-05T09:26:39.171Z,11.40
2019-04-05T09:29:09.449Z,11.50
2019-04-05T09:31:39.438Z,11.40
2019-04-05T09:34:09.224Z,11.30
2019-04-05T09:36:38.781Z,11.50
2019-04-05T09:39:15.014Z,11.60
2019-04-05T09:41:41.260Z,11.70
2019-04-05T09:44:10.800Z,11.70
2019-04-05T09:46:46.843Z,11.70
2019-04-05T09:49:11.961Z,11.70
2019-04-05T09:51:41.552Z,11.80
2019-04-05T09:54:11.160Z,11.70
2019-04-05T09:56:40.712Z,11.70
2019-04-05T09:59:10.325Z,11.60
2019-04-05T10:01:40.076Z,11.60
2019-04-05T10:04:09.548Z,11.50
2019-04-05T10:06:39.260Z,11.50
2019-04-05T10:09:09.081Z,11.50
2019-04-05T10:11:38.853Z,11.50
2019-04-05T10:14:08.578Z,11.60
2019-04-05T10:16:38.299Z,11.70
2019-04-05T10:19:07.935Z,11.90
2019-04-05T10:21:37.653Z,12.20
2019-04-05T10:24:07.203Z,12.40
2019-04-05T10:26:36.748Z,12.50
2019-04-05T10:29:06.296Z,12.40
2019-04-05T10:31:35.868Z,12.20
2019-04-05T10:34:05.419Z,12.10
2019-04-05T10:36:35.263Z,12.00
2019-04-05T10:39:08.492Z,12.00
2019-04-05T10:41:38.732Z,11.90
2019-04-05T10:44:09.984Z,11.80
2019-04-05T10:46:39.851Z,11.80
2019-04-05T10:49:09.528Z,11.80
2019-04-05T10:51:39.252Z,11.90
2019-04-05T10:54:09.661Z,11.90
2019-04-05T10:56:39.652Z,11.90
2019-04-05T10:59:09.198Z,11.90
2019-04-05T11:01:38.732Z,12.10
2019-04-05T11:04:08.285Z,12.10
2019-04-05T11:06:37.820Z,12.10
2019-04-05T11:09:07.740Z,12.20
2019-04-05T11:11:37.439Z,12.30
2019-04-05T11:14:13.614Z,12.40
2019-04-05T11:16:38.596Z,12.60
2019-04-05T11:19:08.299Z,12.90
2019-04-05T11:21:38.167Z,13.10
2019-04-05T11:24:07.898Z,13.20
2019-04-05T11:26:37.442Z,13.20
2019-04-05T11:29:06.995Z,13.00
2019-04-05T11:31:36.579Z,13.20
2019-04-05T11:34:06.256Z,13.40
2019-04-05T11:36:36.353Z,13.60
2019-04-05T11:39:10.113Z,13.50
2019-04-05T11:41:42.777Z,13.40
2019-04-05T11:44:12.884Z,13.10
2019-04-05T11:46:42.969Z,13.10
2019-04-05T11:49:14.892Z,13.00
2019-04-05T11:51:45.426Z,13.00
2019-04-05T11:54:18.440Z,12.90
2019-04-05T11:56:48.404Z,12.80
2019-04-05T11:59:19.716Z,12.70
2019-04-05T12:01:53.904Z,12.60
2019-04-05T12:04:23.569Z,12.50
2019-04-05T12:07:05.507Z,12.50
2019-04-05T12:09:35.135Z,12.40
2019-04-05T12:12:04.756Z,12.30
2019-04-05T12:14:34.515Z,12.20
2019-04-05T12:17:06.225Z,12.20
2019-04-05T12:19:38.105Z,12.30
2019-04-05T12:22:09.115Z,12.40
2019-04-05T12:24:38.652Z,12.50
2019-04-05T12:27:08.363Z,12.50
2019-04-05T12:29:38.072Z,12.60
2019-04-05T12:32:07.708Z,12.70
2019-04-05T12:34:37.489Z,12.80
2019-04-05T12:37:07.324Z,12.90
2019-04-05T12:39:37.299Z,12.90
2019-04-05T12:42:07.226Z,13.00
2019-04-05T12:44:36.869Z,13.00
2019-04-05T12:47:06.651Z,13.00
2019-04-05T12:49:54.536Z,13.00
2019-04-05T12:52:27.355Z,13.10
2019-04-05T12:54:56.087Z,13.10
2019-04-05T12:57:27.776Z,13.10
2019-04-05T12:59:57.207Z,13.20
2019-04-05T13:02:33.245Z,13.20
2019-04-05T13:04:58.067Z,13.00
2019-04-05T13:07:46.964Z,13.00
2019-04-05T13:10:16.778Z,13.00
2019-04-05T13:12:46.456Z,13.20
2019-04-05T13:15:17.301Z,13.20
2019-04-05T13:17:47.245Z,13.30
2019-04-05T13:20:17.112Z,13.40
2019-04-05T13:22:46.677Z,13.40
2019-04-05T13:25:16.212Z,13.30
2019-04-05T13:27:46.628Z,13.30
2019-04-05T13:30:18.303Z,13.10
2019-04-05T13:32:47.728Z,13.20
2019-04-05T13:35:17.529Z,13.30
2019-04-05T13:37:47.247Z,13.50
2019-04-05T13:40:16.858Z,13.60
2019-04-05T13:42:46.408Z,13.80
2019-04-05T13:45:16.116Z,13.80
2019-04-05T13:47:45.665Z,14.00
2019-04-05T13:50:15.545Z,14.00
2019-04-05T13:52:45.081Z,14.00
2019-04-05T13:55:14.858Z,14.10
2019-04-05T13:57:44.516Z,14.10
2019-04-05T14:00:18.201Z,14.10
2019-04-05T14:02:50.023Z,14.20
2019-04-05T14:05:19.344Z,14.20
2019-04-05T14:07:49.373Z,14.20
2019-04-05T14:10:19.116Z,14.20
2019-04-05T14:12:48.692Z,14.10
2019-04-05T14:15:18.228Z,14.10
2019-04-05T14:17:49.376Z,14.10
2019-04-05T14:20:20.644Z,14.00
2019-04-05T14:22:51.433Z,14.00
2019-04-05T14:25:21.446Z,13.90
2019-04-05T14:27:51.003Z,13.80
2019-04-05T14:30:20.743Z,13.70
2019-04-05T14:32:51.082Z,13.70
2019-04-05T14:35:24.547Z,13.70
2019-04-05T14:37:54.551Z,13.70
2019-04-05T14:40:28.387Z,13.70
2019-04-05T14:42:56.861Z,13.70
2019-04-05T14:45:26.507Z,13.80
2019-04-05T14:47:58.488Z,13.80
2019-04-05T14:50:28.312Z,13.80
2019-04-05T14:53:00.760Z,13.80
2019-04-05T14:55:30.590Z,13.90
2019-04-05T14:58:00.203Z,13.90
2019-04-05T15:00:29.821Z,13.90
2019-04-05T15:02:59.697Z,13.90
2019-04-05T15:05:29.704Z,13.90
2019-04-05T15:08:01.095Z,13.90
2019-04-05T15:10:30.863Z,13.90
2019-04-05T15:13:00.476Z,13.60
2019-04-05T15:15:30.288Z,13.40
2019-04-05T15:18:02.911Z,13.10
2019-04-05T15:20:32.690Z,13.20
2019-04-05T15:23:03.756Z,13.20
2019-04-05T15:25:33.297Z,13.20
2019-04-05T15:28:02.847Z,13.20
2019-04-05T15:30:32.465Z,13.20
2019-04-05T15:33:03.664Z,13.00
2019-04-05T15:35:33.151Z,13.00
2019-04-05T15:38:02.699Z,13.00
2019-04-05T15:40:32.314Z,13.00
2019-04-05T15:43:02.040Z,13.10
2019-04-05T15:45:31.571Z,13.20
2019-04-05T15:48:01.323Z,13.20
2019-04-05T15:50:31.150Z,13.30
2019-04-05T15:53:02.351Z,13.00
2019-04-05T15:55:34.298Z,12.80
2019-04-05T15:58:03.806Z,12.80
2019-04-05T16:00:42.285Z,12.80
2019-04-05T16:03:12.873Z,12.70
2019-04-05T16:05:43.476Z,12.80
2019-04-05T16:08:16.184Z,12.90
2019-04-05T16:10:46.080Z,12.80
2019-04-05T16:13:15.617Z,12.90
2019-04-05T16:15:45.547Z,12.90
2019-04-05T16:18:15.206Z,13.00
2019-04-05T16:20:44.734Z,13.10
2019-04-05T16:23:14.365Z,13.20
2019-04-05T16:25:44.201Z,13.30
2019-04-05T16:28:13.664Z,13.30
2019-04-05T16:30:43.303Z,13.40
2019-04-05T16:33:12.836Z,13.40
2019-04-05T16:35:42.384Z,13.40
2019-04-05T16:38:12.004Z,13.10
2019-04-05T16:40:41.523Z,12.70
2019-04-05T16:43:11.229Z,12.70
2019-04-05T16:45:40.821Z,12.90
2019-04-05T16:48:10.543Z,12.90
2019-04-05T16:50:42.244Z,12.90
2019-04-05T16:53:11.807Z,13.00
2019-04-05T16:55:41.783Z,13.10
2019-04-05T16:58:11.527Z,13.00
2019-04-05T17:00:41.344Z,13.00
2019-04-05T17:03:11.321Z,13.00
2019-04-05T17:05:40.971Z,13.00
2019-04-05T17:08:10.933Z,12.90
2019-04-05T17:10:40.893Z,12.80
2019-04-05T17:13:10.785Z,12.80
2019-04-05T17:15:40.469Z,12.60
2019-04-05T17:18:10.240Z,12.50
2019-04-05T17:20:39.784Z,12.30
2019-04-05T17:23:09.448Z,12.30
2019-04-05T17:25:39.105Z,12.30
2019-04-05T17:28:08.842Z,12.30
2019-04-05T17:30:38.483Z,12.30
2019-04-05T17:33:08.564Z,12.30
2019-04-05T17:35:38.211Z,12.30
2019-04-05T17:38:07.953Z,12.30
2019-04-05T17:40:37.640Z,12.30
2019-04-05T17:43:07.990Z,12.20
2019-04-05T17:45:37.763Z,12.00
2019-04-05T17:48:07.476Z,11.90
2019-04-05T17:50:37.358Z,11.90
2019-04-05T17:53:12.802Z,11.70
2019-04-05T17:55:38.508Z,11.50
2019-04-05T17:58:08.320Z,11.40
2019-04-05T18:00:38.174Z,11.30
2019-04-05T18:03:07.721Z,11.10
2019-04-05T18:05:37.260Z,11.00
2019-04-05T18:08:07.101Z,10.90
2019-04-05T18:10:36.683Z,10.90
2019-04-05T18:13:06.328Z,10.80
2019-04-05T18:15:36.352Z,10.80
2019-04-05T18:18:06.535Z,10.80
2019-04-05T18:20:36.559Z,10.70
2019-04-05T18:23:06.095Z,10.70
2019-04-05T18:25:35.794Z,10.50
2019-04-05T18:28:05.492Z,10.30
2019-04-05T18:30:35.160Z,10.30
2019-04-05T18:33:04.860Z,10.30
2019-04-05T18:35:34.437Z,10.20
2019-04-05T18:38:03.971Z,10.10
2019-04-05T18:40:39.866Z,10.00
2019-04-05T18:43:05.598Z,9.90
2019-04-05T18:45:35.412Z,9.90
2019-04-05T18:48:05.584Z,9.70
2019-04-05T18:50:35.275Z,9.60
2019-04-05T18:53:04.813Z,9.60
2019-04-05T18:55:34.448Z,9.50
2019-04-05T18:58:04.351Z,9.50
2019-04-05T19:00:33.923Z,9.40
2019-04-05T19:03:03.463Z,9.40
2019-04-05T19:05:33.034Z,9.30
2019-04-05T19:08:02.667Z,9.20
2019-04-05T19:10:37.208Z,9.20
2019-04-05T19:13:03.868Z,9.10
2019-04-05T19:15:33.412Z,9.10
2019-04-05T19:18:03.180Z,9.10
2019-04-05T19:20:33.034Z,9.10
2019-04-05T19:23:02.570Z,9.10
2019-04-05T19:25:32.131Z,9.10
2019-04-05T19:28:02.234Z,9.00
2019-04-05T19:50:42.821Z,8.60
2019-04-05T19:53:12.675Z,8.60
2019-04-05T19:55:42.229Z,8.50
2019-04-05T19:58:11.700Z,8.50
2019-04-05T20:00:41.583Z,8.40
2019-04-05T20:03:11.747Z,8.40
2019-04-05T20:05:41.548Z,8.30
2019-04-05T20:08:11.268Z,8.30
2019-04-05T20:10:40.799Z,8.30
2019-04-05T20:13:10.870Z,8.30
2019-04-05T20:15:40.408Z,8.30
2019-04-05T20:18:09.994Z,8.30
2019-04-05T20:20:39.594Z,8.20
2019-04-05T20:23:09.172Z,8.10
2019-04-05T20:25:38.704Z,8.10
2019-04-05T20:28:08.277Z,8.10
2019-04-05T20:30:37.808Z,8.20
2019-04-05T20:33:07.381Z,8.20
2019-04-05T20:35:37.415Z,8.10
2019-04-05T20:38:06.984Z,8.10
2019-04-05T20:40:36.687Z,8.10
2019-04-05T20:43:06.447Z,8.00
2019-04-05T20:45:36.075Z,7.90
2019-04-05T20:48:05.645Z,7.90
2019-04-05T20:50:35.672Z,7.80
2019-04-05T20:53:05.228Z,7.80
2019-04-05T20:55:37.212Z,7.80
2019-04-05T20:58:06.215Z,7.80
2019-04-05T21:00:35.748Z,7.80
2019-04-05T21:03:05.321Z,7.70
2019-04-05T21:05:34.849Z,7.70
2019-04-05T21:08:04.349Z,7.70
2019-04-05T21:10:34.089Z,7.70
2019-04-05T21:13:04.080Z,7.70
2019-04-05T21:15:33.603Z,7.70
2019-04-05T21:18:03.171Z,7.60
2019-04-05T21:20:32.707Z,7.60
2019-04-05T21:23:02.261Z,7.60
2019-04-05T21:25:31.787Z,7.50
2019-04-05T21:28:01.343Z,7.50
2019-04-05T21:30:30.801Z,7.50
2019-04-05T21:33:00.307Z,7.50
2019-04-05T21:35:29.845Z,7.50
2019-04-05T21:37:59.405Z,7.40
2019-04-05T21:40:28.865Z,7.50
2019-04-05T21:42:58.396Z,7.50
2019-04-05T21:45:27.953Z,7.50
2019-04-05T21:47:57.488Z,7.50
2019-04-05T21:50:27.120Z,7.50
2019-04-05T21:52:56.584Z,7.60
2019-04-05T21:55:26.224Z,7.60
2019-04-05T21:57:55.835Z,7.60
2019-04-05T22:00:28.543Z,7.60
2019-04-05T22:02:58.324Z,7.60
2019-04-05T22:05:29.707Z,7.60
2019-04-05T22:07:59.253Z,7.50
2019-04-05T22:10:29.184Z,7.50
2019-04-05T22:12:59.053Z,7.50
2019-04-05T22:15:28.633Z,7.50
2019-04-05T22:17:58.273Z,7.50
2019-04-05T22:20:27.804Z,7.40
2019-04-05T22:22:57.424Z,7.40
2019-04-05T22:25:27.151Z,7.30
2019-04-05T22:27:56.691Z,7.40
2019-04-05T22:30:26.363Z,7.40
2019-04-05T22:32:56.006Z,7.30
2019-04-05T22:35:25.476Z,7.30
2019-04-05T22:37:55.188Z,7.30
2019-04-05T22:40:24.736Z,7.30
2019-04-05T22:42:54.280Z,7.30
2019-04-05T22:45:23.824Z,7.30
2019-04-05T22:47:53.358Z,7.20
2019-04-05T22:50:22.904Z,7.20
2019-04-05T22:52:52.373Z,7.30
2019-04-05T22:55:21.989Z,7.20
2019-04-05T22:57:51.528Z,7.20
2019-04-05T23:00:21.241Z,7.20
2019-04-05T23:02:50.820Z,7.20
2019-04-05T23:05:20.379Z,7.20
2019-04-05T23:07:49.909Z,7.20
2019-04-05T23:10:19.457Z,7.20
2019-04-05T23:12:48.999Z,7.20
2019-04-05T23:15:18.543Z,7.20
2019-04-05T23:17:48.181Z,7.00
2019-04-05T23:20:17.725Z,7.10
2019-04-05T23:22:47.461Z,7.00
2019-04-05T23:25:22.326Z,7.00
2019-04-05T23:27:49.115Z,7.00
2019-04-05T23:30:19.467Z,7.10
2019-04-05T23:32:49.303Z,7.10
2019-04-05T23:35:19.332Z,7.10
2019-04-05T23:37:49.289Z,7.00
2019-04-05T23:40:18.836Z,7.10
2019-04-05T23:42:49.958Z,7.00
2019-04-05T23:45:19.755Z,7.00
2019-04-05T23:47:49.361Z,7.00
2019-04-05T23:50:18.971Z,7.00
2019-04-05T23:52:48.515Z,7.00
2019-04-05T23:55:18.340Z,7.00
2019-04-05T23:57:48.188Z,7.00
